Time;durP1;ratioP1;P1;durP2;ratioP2;P2;SDS_P1;SDS_P2;PMS_P1;PMS_P2;Temp;Humidity;BMP_temperature;BMP_pressure;BME280_temperature;BME280_humidity;BME280_pressure;Samples;Min_cycle;Max_cycle;Signal;HPM_P1;HPM_P2
2022/12/03 00:00:36;;;;;;;2.10;1.90;;;2.90;99.90;1.90;95881.00;;;;5017733;28;20239;-62
2022/12/03 00:03:04;;;;;;;2.13;1.90;;;3.00;99.90;1.90;95873.00;;;;5034866;28;20197;-61
2022/12/03 00:05:30;;;;;;;0.90;0.90;;;3.00;99.90;1.90;95899.00;;;;5017474;28;20215;-61
2022/12/03 00:07:57;;;;;;;1.63;1.53;;;2.90;99.90;1.90;95891.00;;;;5034573;28;20230;-62
2022/12/03 00:10:23;;;;;;;1.37;1.27;;;2.90;99.90;1.90;95884.00;;;;5017368;28;20212;-62
2022/12/03 00:12:50;;;;;;;1.40;1.40;;;2.90;99.90;1.80;95892.00;;;;5034711;28;20581;-61
2022/12/03 00:15:19;;;;;;;3.17;2.67;;;2.90;99.90;1.90;95890.00;;;;5034522;28;20660;-64
2022/12/03 00:17:45;;;;;;;1.33;1.33;;;2.90;99.90;1.80;95897.00;;;;5034367;28;20193;-62
2022/12/03 00:20:22;;;;;;;2.43;2.23;;;2.90;99.90;1.80;95891.00;;;;5016846;28;20233;-65
2022/12/03 00:22:49;;;;;;;2.20;2.00;;;2.90;99.90;1.80;95895.00;;;;5017001;28;20196;-61
2022/12/03 00:25:16;;;;;;;2.03;1.93;;;2.90;99.90;1.90;95892.00;;;;5034374;28;20196;-64
2022/12/03 00:27:45;;;;;;;2.07;1.97;;;2.90;99.90;2.00;95880.00;;;;5034471;28;20223;-63
2022/12/03 00:30:13;;;;;;;1.97;1.87;;;2.90;99.90;2.00;95882.00;;;;5034312;28;20764;-64
2022/12/03 00:32:40;;;;;;;2.53;2.37;;;3.00;99.90;2.10;95881.00;;;;5016961;28;20253;-65
2022/12/03 00:35:07;;;;;;;2.27;2.07;;;3.00;99.90;2.10;95877.00;;;;5016971;28;20208;-63
2022/12/03 00:37:34;;;;;;;1.97;1.87;;;3.10;99.90;2.10;95888.00;;;;5034234;28;20555;-64
2022/12/03 00:40:01;;;;;;;1.63;1.53;;;3.10;99.90;2.10;95881.00;;;;5034024;28;20663;-66
2022/12/03 00:42:27;;;;;;;2.17;2.00;;;3.10;99.90;2.20;95878.00;;;;5016625;28;20558;-62
2022/12/03 00:44:54;;;;;;;1.50;1.40;;;3.10;99.90;2.10;95878.00;;;;5033854;28;20228;-64
2022/12/03 00:47:20;;;;;;;2.10;1.13;;;3.10;99.90;2.00;95879.00;;;;5016640;28;20200;-63
2022/12/03 00:49:47;;;;;;;1.63;1.53;;;3.10;99.90;1.90;95883.00;;;;5034063;28;20222;-63
2022/12/03 00:52:14;;;;;;;1.83;1.73;;;3.00;99.90;1.80;95883.00;;;;5016643;28;20266;-62
2022/12/03 00:54:43;;;;;;;2.80;2.37;;;3.00;99.90;1.80;95895.00;;;;5016417;28;20222;-61
2022/12/03 00:57:09;;;;;;;2.70;2.10;;;2.90;99.90;1.90;95872.00;;;;5033643;28;20286;-61
2022/12/03 00:59:35;;;;;;;1.73;1.67;;;2.90;99.90;1.90;95879.00;;;;5016439;28;20226;-60
2022/12/03 01:02:02;;;;;;;2.30;2.13;;;2.90;99.90;1.90;95891.00;;;;5033712;28;20197;-64
2022/12/03 01:04:28;;;;;;;3.33;2.53;;;2.90;99.90;2.00;95888.00;;;;5016258;28;20220;-60
2022/12/03 01:06:55;;;;;;;2.47;2.27;;;3.00;99.90;2.00;95892.00;;;;5016332;28;20483;-62
2022/12/03 01:09:22;;;;;;;2.13;1.97;;;3.00;99.90;1.90;95892.00;;;;5033549;28;20553;-62
2022/12/03 01:11:50;;;;;;;4.53;2.43;;;2.90;99.90;1.90;95883.00;;;;5033476;28;20220;-61
2022/12/03 01:14:19;;;;;;;2.40;2.30;;;2.90;99.90;1.90;95898.00;;;;5033576;28;20212;-62
2022/12/03 01:16:47;;;;;;;2.07;1.97;;;2.90;99.90;1.80;95886.00;;;;5033387;28;20218;-60
2022/12/03 01:19:16;;;;;;;2.73;2.50;;;2.90;99.90;1.80;95903.00;;;;5032690;28;20667;-62
2022/12/03 01:21:44;;;;;;;1.83;1.73;;;2.90;99.90;1.80;95878.00;;;;5015969;28;20281;-61
2022/12/03 01:24:14;;;;;;;2.20;2.10;;;2.80;99.90;1.90;95895.00;;;;5033478;28;20192;-60
2022/12/03 01:26:41;;;;;;;2.50;2.40;;;2.90;99.90;1.90;95906.00;;;;5033370;28;20193;-61
2022/12/03 01:29:07;;;;;;;2.33;2.13;;;2.90;99.90;2.00;95903.00;;;;5033715;28;20211;-61
2022/12/03 01:34:27;;;;;;;2.10;1.90;;;3.00;99.90;2.00;95902.00;;;;4973427;28;20699;-62
2022/12/03 01:36:56;;;;;;;1.10;1.10;;;3.00;99.90;2.00;95899.00;;;;5036913;28;20200;-62
2022/12/03 01:39:23;;;;;;;2.30;2.20;;;3.00;99.90;2.00;95910.00;;;;5036549;28;20216;-59
2022/12/03 01:41:52;;;;;;;1.63;1.40;;;3.00;99.90;2.00;95909.00;;;;5036639;28;20196;-61
2022/12/03 01:44:23;;;;;;;2.53;2.33;;;3.00;99.90;2.00;95907.00;;;;5036638;28;20204;-61
2022/12/03 01:46:52;;;;;;;1.83;1.73;;;3.00;99.90;2.00;95902.00;;;;5036646;28;20274;-62
2022/12/03 01:49:24;;;;;;;1.60;1.60;;;3.00;99.90;2.10;95891.00;;;;5036688;28;20217;-61
2022/12/03 01:51:52;;;;;;;3.30;3.00;;;3.10;99.90;2.00;95898.00;;;;5036577;28;20308;-60
2022/12/03 01:54:25;;;;;;;3.40;3.10;;;3.00;99.90;2.00;95910.00;;;;5036569;28;20534;-61
2022/12/03 01:56:54;;;;;;;3.90;3.53;;;3.00;99.90;2.10;95902.00;;;;5019008;28;20201;-61
2022/12/03 01:59:29;;;;;;;2.73;2.53;;;3.10;99.90;2.10;95908.00;;;;5036383;28;20224;-61
2022/12/03 02:01:56;;;;;;;3.13;2.83;;;3.10;99.90;2.10;95904.00;;;;5036486;28;20199;-61
2022/12/03 02:04:23;;;;;;;3.80;2.77;;;3.10;99.90;2.10;95913.00;;;;5036564;28;20208;-61
2022/12/03 02:06:49;;;;;;;3.43;2.90;;;3.10;99.90;2.00;95911.00;;;;5036401;28;20196;-61
2022/12/03 02:09:16;;;;;;;4.90;3.10;;;3.00;99.90;2.00;95905.00;;;;5036190;28;20223;-61
2022/12/03 02:11:47;;;;;;;4.60;3.33;;;3.00;99.90;2.00;95911.00;;;;5036357;28;20266;-61
2022/12/03 02:14:20;;;;;;;4.33;2.93;;;3.10;99.90;2.00;95899.00;;;;5036190;28;20246;-61
2022/12/03 02:16:47;;;;;;;4.00;2.93;;;3.00;99.90;1.90;95901.00;;;;5019189;28;20274;-62
2022/12/03 02:19:23;;;;;;;3.00;2.77;;;3.00;99.90;1.90;95904.00;;;;5018850;28;20238;-62
2022/12/03 02:21:58;;;;;;;4.57;3.33;;;2.90;99.90;2.00;95901.00;;;;5018676;28;20294;-60
2022/12/03 02:24:34;;;;;;;6.73;3.60;;;3.00;99.90;1.90;95903.00;;;;5036380;28;20212;-61
2022/12/03 02:27:04;;;;;;;7.40;3.53;;;3.00;99.90;1.90;95901.00;;;;5036035;28;20199;-61
2022/12/03 02:29:31;;;;;;;2.00;1.90;;;2.90;99.90;1.90;95897.00;;;;5036112;28;20206;-61
2022/12/03 02:31:57;;;;;;;2.97;2.77;;;2.90;99.90;1.80;95898.00;;;;5035851;28;20223;-61
2022/12/03 02:34:36;;;;;;;3.00;2.80;;;2.90;99.90;1.90;95896.00;;;;5035899;28;20296;-61
2022/12/03 02:37:06;;;;;;;3.53;3.27;;;2.90;99.90;1.90;95896.00;;;;5018497;28;20224;-61
2022/12/03 02:39:35;;;;;;;4.33;2.57;;;2.90;99.90;1.90;95887.00;;;;5035794;28;20353;-61
2022/12/03 02:44:49;;;;;;;3.60;3.30;;;2.90;99.90;1.90;95904.00;;;;5035682;28;20195;-62
2022/12/03 02:47:16;;;;;;;2.90;2.63;;;2.90;99.90;1.90;95900.00;;;;5035767;28;20512;-61
2022/12/03 02:49:43;;;;;;;2.53;2.33;;;3.00;99.90;1.90;95894.00;;;;5035767;28;20286;-64
2022/12/03 02:52:12;;;;;;;2.43;2.27;;;2.90;99.90;1.90;95909.00;;;;5035696;28;20201;-61
2022/12/03 02:54:38;;;;;;;2.67;2.53;;;2.90;99.90;1.90;95902.00;;;;5018463;28;20204;-61
2022/12/03 02:57:05;;;;;;;3.47;3.23;;;2.90;99.90;1.90;95907.00;;;;5035777;28;20216;-65
2022/12/03 02:59:32;;;;;;;4.23;3.23;;;2.90;99.90;1.90;95899.00;;;;5035783;28;20227;-63
2022/12/03 03:02:00;;;;;;;2.90;2.70;;;2.90;99.90;1.90;95903.00;;;;5035723;28;20208;-63
2022/12/03 03:04:28;;;;;;;1.60;1.50;;;2.90;99.90;1.90;95907.00;;;;5018085;28;20293;-65
2022/12/03 03:06:55;;;;;;;5.20;4.13;;;2.90;99.90;1.90;95895.00;;;;5018301;28;20209;-64
2022/12/03 03:09:22;;;;;;;4.37;3.20;;;2.90;99.90;1.90;95901.00;;;;5035467;28;20255;-64
2022/12/03 03:11:48;;;;;;;8.10;3.83;;;2.90;99.90;2.00;95901.00;;;;5018331;28;20265;-62
2022/12/03 03:14:15;;;;;;;3.13;2.93;;;3.00;99.90;1.90;95899.00;;;;5017770;28;20220;-61
2022/12/03 03:16:42;;;;;;;6.57;4.63;;;2.90;99.90;1.90;95888.00;;;;5017860;28;20561;-62
2022/12/03 03:19:08;;;;;;;3.67;2.63;;;2.90;99.90;1.90;95895.00;;;;5035203;28;20607;-61
2022/12/03 03:21:37;;;;;;;11.10;3.43;;;2.90;99.90;1.90;95890.00;;;;5035209;28;20277;-61
2022/12/03 03:24:04;;;;;;;3.20;2.60;;;2.90;99.90;1.90;95891.00;;;;5035261;28;20204;-60
2022/12/03 03:26:31;;;;;;;3.37;3.07;;;2.90;99.90;1.90;95891.00;;;;5035112;28;20713;-60
2022/12/03 03:28:59;;;;;;;2.83;2.63;;;2.90;99.90;1.90;95894.00;;;;5035018;28;20533;-60
2022/12/03 03:31:26;;;;;;;2.27;2.17;;;2.90;99.90;1.90;95894.00;;;;5035044;28;20219;-60
2022/12/03 03:33:52;;;;;;;6.00;2.23;;;2.90;99.90;1.90;95900.00;;;;5034855;28;20204;-60
2022/12/03 03:36:19;;;;;;;4.17;3.33;;;2.90;99.90;1.90;95893.00;;;;5035096;28;20636;-59
2022/12/03 03:38:47;;;;;;;4.83;2.50;;;2.90;99.90;1.90;95898.00;;;;5034741;28;20551;-60
2022/12/03 03:41:14;;;;;;;3.20;3.00;;;2.90;99.90;1.90;95908.00;;;;5035007;28;20660;-61
2022/12/03 03:43:46;;;;;;;3.57;3.27;;;2.90;99.90;1.90;95893.00;;;;5034852;28;20232;-61
2022/12/03 03:46:17;;;;;;;3.27;3.03;;;2.90;99.90;1.90;95897.00;;;;5034863;28;20291;-61
2022/12/03 03:48:47;;;;;;;3.13;2.93;;;3.00;99.90;1.90;95890.00;;;;5034761;28;20212;-61
2022/12/03 03:51:15;;;;;;;5.53;3.53;;;2.90;99.90;1.90;95894.00;;;;5017350;28;20283;-61
2022/12/03 03:53:46;;;;;;;3.03;2.20;;;3.10;99.90;2.00;95894.00;;;;5034266;28;20278;-61
2022/12/03 03:56:14;;;;;;;4.67;2.83;;;3.00;99.90;1.90;95890.00;;;;5017099;28;20289;-61
2022/12/03 03:58:43;;;;;;;3.30;1.70;;;3.00;99.90;2.00;95873.00;;;;5034599;28;20277;-62
2022/12/03 04:01:12;;;;;;;3.40;3.13;;;3.00;99.90;2.00;95893.00;;;;5017372;28;20232;-63
2022/12/03 04:03:39;;;;;;;2.13;2.03;;;3.10;99.90;1.90;95882.00;;;;5034534;28;20192;-61
2022/12/03 04:06:07;;;;;;;4.67;4.27;;;3.00;99.90;1.90;95896.00;;;;5017227;28;20640;-61
2022/12/03 04:08:34;;;;;;;3.07;2.77;;;3.00;99.90;1.90;95888.00;;;;5034486;28;20271;-61
2022/12/03 04:13:53;;;;;;;3.23;2.67;;;2.90;99.90;1.90;95887.00;;;;4987974;28;20255;-60
2022/12/03 04:16:20;;;;;;;2.53;2.33;;;2.90;99.90;1.90;95873.00;;;;5034370;28;20217;-63
2022/12/03 04:18:46;;;;;;;3.57;2.90;;;3.00;99.90;1.90;95882.00;;;;5016898;28;20233;-61
2022/12/03 04:24:01;;;;;;;2.83;2.63;;;2.90;99.90;1.90;95880.00;;;;5016952;28;20224;-61
2022/12/03 04:29:13;;;;;;;3.73;3.47;;;3.00;99.90;2.00;95874.00;;;;5016726;28;20229;-61
2022/12/03 04:37:10;;;;;;;3.97;3.53;;;2.90;99.90;2.00;95876.00;;;;5034096;28;20233;-61
2022/12/03 04:39:39;;;;;;;4.10;3.70;;;3.00;99.90;2.00;95869.00;;;;5034354;28;20230;-62
2022/12/03 04:42:08;;;;;;;2.33;2.13;;;3.00;99.90;2.00;95870.00;;;;5033956;28;20200;-61
2022/12/03 04:44:37;;;;;;;2.50;2.30;;;3.00;99.90;2.00;95868.00;;;;5034350;28;20709;-60
2022/12/03 04:47:08;;;;;;;2.43;2.33;;;3.00;99.90;2.00;95880.00;;;;5033975;28;20200;-61
2022/12/03 04:49:37;;;;;;;3.13;2.87;;;3.00;99.90;2.00;95872.00;;;;5033869;28;20208;-61
2022/12/03 04:52:04;;;;;;;4.90;2.93;;;3.00;99.90;2.00;95868.00;;;;5016235;28;20242;-61
2022/12/03 04:54:31;;;;;;;3.07;2.77;;;3.00;99.90;2.00;95870.00;;;;5033788;28;20278;-62
2022/12/03 04:56:57;;;;;;;3.73;3.50;;;3.00;99.90;2.10;95872.00;;;;5033686;28;20235;-61
2022/12/03 04:59:26;;;;;;;4.17;2.77;;;3.10;99.90;2.00;95871.00;;;;5033611;28;20686;-61
2022/12/03 05:01:55;;;;;;;5.17;3.27;;;3.00;99.90;2.00;95873.00;;;;5033663;28;20275;-63
2022/12/03 05:04:21;;;;;;;2.90;2.70;;;3.00;99.90;2.10;95865.00;;;;5032836;28;20284;-61
2022/12/03 05:06:48;;;;;;;3.90;3.57;;;3.10;99.90;2.00;95866.00;;;;5016323;28;20203;-63
2022/12/03 05:09:15;;;;;;;2.53;2.33;;;3.00;99.90;2.00;95862.00;;;;5033774;28;20231;-61
2022/12/03 05:11:42;;;;;;;3.30;3.10;;;2.90;99.90;2.00;95856.00;;;;5033740;28;20200;-61
2022/12/03 05:14:09;;;;;;;6.33;3.93;;;3.00;99.90;2.00;95850.00;;;;5033440;28;20228;-61
2022/12/03 05:16:36;;;;;;;4.03;3.70;;;3.00;99.90;2.00;95857.00;;;;5033527;28;20532;-62
2022/12/03 05:19:05;;;;;;;6.17;3.20;;;3.00;99.90;2.00;95847.00;;;;5016018;28;20270;-61
2022/12/03 05:21:31;;;;;;;7.77;3.77;;;3.00;99.90;2.00;95859.00;;;;5033407;28;20261;-62
2022/12/03 05:23:58;;;;;;;4.10;2.17;;;3.00;99.90;2.00;95854.00;;;;5033571;28;20219;-61
2022/12/03 05:26:25;;;;;;;2.77;1.97;;;3.00;99.90;2.00;95864.00;;;;5033327;28;20210;-61
2022/12/03 05:28:52;;;;;;;3.47;3.23;;;3.00;99.90;2.00;95867.00;;;;5033382;28;20204;-61
2022/12/03 05:31:18;;;;;;;3.93;3.17;;;3.00;99.90;1.90;95868.00;;;;5015733;28;20216;-61
2022/12/03 05:33:44;;;;;;;3.80;3.50;;;3.00;99.90;1.90;95869.00;;;;5033299;28;20262;-61
2022/12/03 05:36:11;;;;;;;5.77;3.10;;;2.90;99.90;1.90;95865.00;;;;5033336;28;20701;-62
2022/12/03 05:38:38;;;;;;;3.63;3.33;;;2.90;99.90;1.80;95865.00;;;;5033245;28;20201;-61
2022/12/03 05:42:52;;;;;;;4.20;3.20;;;2.90;99.90;1.90;95851.00;;;;5033301;28;20274;-64
2022/12/03 05:43:51;;;;;;;2.80;2.33;;;2.90;99.90;1.90;95851.00;;;;5033083;28;20699;-60
2022/12/03 05:46:18;;;;;;;4.10;3.60;;;2.90;99.90;1.90;95861.00;;;;5033188;28;20204;-61
2022/12/03 05:48:45;;;;;;;4.40;3.00;;;3.00;99.90;2.00;95855.00;;;;5033067;28;20267;-61
2022/12/03 05:51:11;;;;;;;3.03;2.80;;;3.00;99.90;1.90;95858.00;;;;5033023;28;20214;-61
2022/12/03 05:53:40;;;;;;;3.10;2.90;;;3.10;99.90;1.90;95854.00;;;;5015487;28;20285;-60
2022/12/03 05:56:07;;;;;;;3.97;3.23;;;3.00;99.90;1.90;95846.00;;;;5015505;28;20205;-62
2022/12/03 05:58:33;;;;;;;3.70;3.40;;;2.90;99.90;2.00;95857.00;;;;5032864;28;20243;-60
2022/12/03 06:01:00;;;;;;;3.07;2.87;;;3.00;99.90;1.90;95847.00;;;;5015681;28;20279;-62
2022/12/03 06:03:27;;;;;;;4.47;2.50;;;3.00;99.90;1.90;95851.00;;;;5032905;28;20266;-60
2022/12/03 06:05:53;;;;;;;8.23;2.53;;;3.00;99.90;1.90;95855.00;;;;5015589;28;20591;-60
2022/12/03 06:08:19;;;;;;;2.17;2.07;;;3.00;99.90;1.90;95851.00;;;;5032763;28;20219;-59
2022/12/03 06:10:46;;;;;;;3.27;2.90;;;2.90;99.90;1.90;95855.00;;;;5015431;28;20227;-60
2022/12/03 06:13:14;;;;;;;2.00;1.90;;;2.90;99.90;1.90;95860.00;;;;5032996;28;20657;-62
2022/12/03 06:15:41;;;;;;;3.23;2.93;;;2.90;99.90;1.90;95868.00;;;;5016261;28;20243;-62
2022/12/03 06:18:08;;;;;;;2.57;2.37;;;2.90;99.90;1.90;95861.00;;;;5036075;28;20223;-59
2022/12/03 06:20:34;;;;;;;3.40;2.77;;;2.90;99.90;1.90;95870.00;;;;5018670;28;20239;-62
2022/12/03 06:23:00;;;;;;;2.63;2.50;;;2.90;99.90;1.90;95859.00;;;;5018848;28;20208;-62
2022/12/03 06:25:27;;;;;;;4.87;4.40;;;2.90;99.90;1.90;95836.00;;;;5036178;28;20200;-62
2022/12/03 06:27:53;;;;;;;4.30;3.33;;;2.90;99.90;1.90;95869.00;;;;5018717;28;20226;-62
2022/12/03 06:30:20;;;;;;;4.60;3.70;;;3.00;99.90;1.90;95863.00;;;;5036090;28;20192;-62
2022/12/03 06:32:46;;;;;;;2.97;2.73;;;2.90;99.90;1.90;95872.00;;;;5018796;28;20232;-61
2022/12/03 06:35:13;;;;;;;3.30;2.57;;;2.90;99.90;1.80;95867.00;;;;5018786;28;20200;-62
2022/12/03 06:37:39;;;;;;;1.90;1.80;;;2.90;99.90;1.90;95883.00;;;;5035760;28;20208;-61
2022/12/03 06:40:08;;;;;;;4.17;3.77;;;2.90;99.90;1.90;95878.00;;;;5018464;28;20609;-59
2022/12/03 06:42:34;;;;;;;2.10;2.00;;;2.90;99.90;1.90;95878.00;;;;5035796;28;20196;-59
2022/12/03 06:45:01;;;;;;;2.97;2.73;;;2.90;99.90;1.90;95867.00;;;;5018523;28;20220;-61
2022/12/03 06:47:27;;;;;;;6.17;3.17;;;2.90;99.90;1.80;95879.00;;;;5036043;28;20208;-61
2022/12/03 06:49:53;;;;;;;3.03;2.73;;;2.90;99.90;1.80;95873.00;;;;5035614;28;20219;-61
2022/12/03 06:52:20;;;;;;;3.27;2.97;;;2.90;99.90;1.80;95875.00;;;;5035919;28;20200;-60
2022/12/03 06:54:47;;;;;;;2.63;2.53;;;2.80;99.90;1.80;95876.00;;;;5035541;28;20232;-60
2022/12/03 06:57:13;;;;;;;3.10;2.90;;;2.90;99.90;1.80;95864.00;;;;5036008;28;20287;-61
2022/12/03 06:59:42;;;;;;;2.77;2.57;;;2.80;99.90;1.80;95870.00;;;;5018677;28;20555;-64
2022/12/03 07:02:10;;;;;;;5.77;3.93;;;2.80;99.90;1.80;95867.00;;;;5035778;28;20223;-65
2022/12/03 07:04:36;;;;;;;4.87;2.97;;;2.80;99.90;1.80;95863.00;;;;5035589;28;20201;-65
2022/12/03 07:07:03;;;;;;;1.83;1.73;;;2.80;99.90;1.90;95868.00;;;;5035441;28;20554;-64
2022/12/03 07:09:30;;;;;;;4.03;3.63;;;2.90;99.90;1.90;95856.00;;;;5035550;28;20204;-62
2022/12/03 07:11:56;;;;;;;2.60;2.10;;;2.90;99.90;1.90;95866.00;;;;5035407;28;20217;-62
2022/12/03 07:14:22;;;;;;;2.97;2.77;;;2.90;99.90;1.90;95868.00;;;;5035331;28;20204;-62
2022/12/03 07:16:49;;;;;;;3.07;2.87;;;2.90;99.90;1.90;95862.00;;;;5017838;28;20212;-64
2022/12/03 07:19:18;;;;;;;3.03;2.03;;;2.90;99.90;1.90;95872.00;;;;5017976;28;20205;-67
2022/12/03 07:21:46;;;;;;;4.23;3.93;;;2.90;99.90;1.90;95869.00;;;;5017677;28;20283;-61
2022/12/03 07:24:15;;;;;;;8.00;6.00;;;2.90;99.90;1.80;95872.00;;;;5035296;28;20212;-61
2022/12/03 07:26:42;;;;;;;9.23;6.60;;;2.90;99.90;1.90;95885.00;;;;5035070;28;20224;-64
2022/12/03 07:29:09;;;;;;;5.43;3.80;;;2.90;99.90;1.90;95880.00;;;;5034642;28;20729;-65
2022/12/03 07:31:35;;;;;;;3.10;2.90;;;2.90;99.90;2.00;95872.00;;;;5035315;28;20207;-65
2022/12/03 07:34:01;;;;;;;5.57;3.50;;;3.00;99.90;1.80;95881.00;;;;5017776;28;20545;-60
2022/12/03 07:36:28;;;;;;;4.50;3.87;;;2.90;99.90;1.90;95874.00;;;;5017782;28;20752;-61
2022/12/03 07:38:54;;;;;;;1.73;1.63;;;2.90;99.90;1.90;95886.00;;;;5035155;28;20258;-63
2022/12/03 07:41:21;;;;;;;2.40;2.30;;;2.90;99.90;1.90;95879.00;;;;5017797;28;20298;-63
2022/12/03 07:43:50;;;;;;;2.93;2.73;;;2.90;99.90;1.90;95869.00;;;;5035102;28;20201;-63
2022/12/03 07:46:17;;;;;;;1.93;1.77;;;3.00;99.90;2.00;95875.00;;;;5035132;28;20243;-63
2022/12/03 07:48:43;;;;;;;3.20;2.90;;;2.90;99.90;1.90;95863.00;;;;5034837;28;20201;-62
2022/12/03 07:51:10;;;;;;;4.07;3.67;;;2.90;99.90;2.00;95862.00;;;;5017174;28;20246;-60
2022/12/03 07:53:37;;;;;;;2.53;2.33;;;3.00;99.90;2.00;95869.00;;;;5017837;28;20547;-60
2022/12/03 07:56:04;;;;;;;2.77;2.57;;;3.00;99.90;1.90;95866.00;;;;5034771;28;20287;-62
2022/12/03 07:58:33;;;;;;;3.23;2.97;;;3.00;99.90;2.00;95864.00;;;;5034870;28;20195;-60
2022/12/03 08:01:00;;;;;;;4.33;3.93;;;3.00;99.90;2.10;95871.00;;;;5034502;28;20232;-60
2022/12/03 08:03:26;;;;;;;3.47;3.17;;;3.10;99.90;2.10;95849.00;;;;5017313;28;20231;-60
2022/12/03 08:05:53;;;;;;;4.33;3.93;;;3.10;99.90;2.20;95866.00;;;;5034689;28;20208;-60
2022/12/03 08:08:19;;;;;;;6.90;4.00;;;3.10;99.90;2.20;95870.00;;;;5034463;28;20233;-62
2022/12/03 08:10:46;;;;;;;3.93;3.63;;;3.20;99.90;2.10;95861.00;;;;5016944;28;20760;-60
2022/12/03 08:13:16;;;;;;;2.70;2.43;;;3.10;99.90;1.90;95862.00;;;;5017110;28;20204;-63
2022/12/03 08:15:43;;;;;;;2.57;2.37;;;3.00;99.90;2.00;95863.00;;;;5034371;28;20224;-61
2022/12/03 08:18:16;;;;;;;2.77;1.57;;;3.00;99.90;2.00;95851.00;;;;5034479;28;20188;-60
2022/12/03 08:20:45;;;;;;;2.80;2.60;;;3.00;99.90;2.00;95846.00;;;;5016885;28;20250;-60
2022/12/03 08:23:15;;;;;;;4.10;3.13;;;3.00;99.90;2.10;95857.00;;;;5034596;28;20211;-62
2022/12/03 08:25:43;;;;;;;3.30;3.07;;;3.10;99.90;2.00;95857.00;;;;5034443;28;20255;-62
2022/12/03 08:28:17;;;;;;;2.87;2.67;;;3.10;99.90;2.00;95847.00;;;;5016906;28;20365;-63
2022/12/03 08:30:59;;;;;;;2.80;2.60;;;3.00;99.90;2.10;95848.00;;;;5034116;28;20242;-61
2022/12/03 08:33:29;;;;;;;2.80;2.60;;;3.10;99.90;2.10;95845.00;;;;5034175;28;20620;-63
2022/12/03 08:35:56;;;;;;;7.27;3.10;;;3.10;99.90;2.10;95843.00;;;;5016733;28;20220;-58
2022/12/03 08:38:24;;;;;;;3.20;2.90;;;3.10;99.90;2.10;95826.00;;;;5016562;28;20225;-58
2022/12/03 08:40:54;;;;;;;2.93;2.53;;;3.10;99.90;2.10;95848.00;;;;5033987;28;20240;-59
2022/12/03 08:43:23;;;;;;;1.30;1.30;;;3.20;99.90;2.20;95857.00;;;;5034325;28;20210;-61
2022/12/03 08:45:54;;;;;;;3.70;3.43;;;3.20;99.90;2.10;95854.00;;;;5033859;28;20238;-58
2022/12/03 08:48:33;;;;;;;3.60;3.30;;;3.20;99.90;2.20;95851.00;;;;5016585;28;20219;-58
2022/12/03 08:51:08;;;;;;;4.50;3.17;;;3.20;99.90;2.20;95850.00;;;;5033702;28;20215;-57
2022/12/03 08:53:37;;;;;;;2.80;2.53;;;3.20;99.90;2.00;95850.00;;;;5033783;28;20217;-57
2022/12/03 08:56:18;;;;;;;3.10;2.47;;;3.10;99.90;2.10;95848.00;;;;5033572;28;20220;-58
2022/12/03 08:58:48;;;;;;;2.70;2.37;;;3.10;99.90;2.10;95851.00;;;;5033716;28;20274;-57
2022/12/03 09:01:31;;;;;;;4.47;2.50;;;3.10;99.90;2.10;95849.00;;;;5033638;28;20235;-57
2022/12/03 09:04:23;;;;;;;4.40;3.43;;;3.10;99.90;2.10;95845.00;;;;5016520;28;20296;-57
2022/12/03 09:06:51;;;;;;;11.73;2.50;;;3.10;99.90;2.20;95858.00;;;;5033470;28;20232;-57
2022/12/03 09:09:18;;;;;;;3.30;3.10;;;3.20;99.90;2.30;95855.00;;;;5016097;28;20247;-56
2022/12/03 09:11:45;;;;;;;2.13;2.03;;;3.20;99.90;2.10;95854.00;;;;5033477;28;20213;-57
2022/12/03 09:14:12;;;;;;;3.63;3.43;;;3.10;99.90;2.20;95859.00;;;;5033514;28;20317;-57
2022/12/03 09:16:39;;;;;;;3.73;3.03;;;3.20;99.90;2.00;95869.00;;;;5033419;28;20307;-57
2022/12/03 09:19:06;;;;;;;4.53;2.97;;;3.20;99.90;2.10;95865.00;;;;5019227;28;20219;-57
2022/12/03 09:21:32;;;;;;;2.10;2.00;;;3.10;99.90;2.10;95864.00;;;;5033691;28;20228;-57
2022/12/03 09:23:59;;;;;;;9.10;3.97;;;3.10;99.90;2.20;95865.00;;;;5033309;28;20283;-59
2022/12/03 09:26:26;;;;;;;2.60;1.97;;;3.20;99.90;2.20;95870.00;;;;5016080;28;20702;-57
2022/12/03 09:28:52;;;;;;;2.17;2.07;;;3.20;99.90;2.10;95860.00;;;;5033475;28;20197;-57
2022/12/03 09:31:18;;;;;;;2.73;2.53;;;3.10;99.90;2.10;95864.00;;;;5033302;28;20193;-57
2022/12/03 09:33:45;;;;;;;3.43;2.70;;;3.10;99.90;2.20;95867.00;;;;5033287;28;20532;-57
2022/12/03 09:36:12;;;;;;;3.70;3.43;;;3.30;99.90;2.30;95866.00;;;;5033235;28;20201;-57
2022/12/03 09:38:38;;;;;;;4.07;2.87;;;3.30;99.90;2.30;95856.00;;;;5033033;28;20220;-57
2022/12/03 09:41:08;;;;;;;4.50;3.70;;;3.30;99.90;2.40;95844.00;;;;5015478;28;20227;-57
2022/12/03 09:43:35;;;;;;;4.37;3.63;;;3.30;99.90;2.50;95835.00;;;;5032912;28;20525;-57
2022/12/03 09:46:04;;;;;;;2.37;2.20;;;3.40;99.90;2.60;95823.00;;;;5015851;28;20632;-57
2022/12/03 09:48:36;;;;;;;5.47;4.20;;;3.50;99.90;2.80;95823.00;;;;5033041;28;20298;-59
2022/12/03 09:51:03;;;;;;;3.57;3.27;;;3.60;99.90;2.90;95818.00;;;;5034508;28;20238;-60
2022/12/03 09:53:31;;;;;;;4.43;2.80;;;3.80;99.10;3.00;95817.00;;;;5036639;28;20536;-58
2022/12/03 09:55:59;;;;;;;2.67;2.47;;;3.90;98.50;3.10;95814.00;;;;5036418;28;20504;-57
2022/12/03 09:58:27;;;;;;;6.13;3.30;;;;;3.10;95812.00;;;;5036363;28;20686;-57
2022/12/03 10:00:55;;;;;;;2.70;2.57;;;4.10;99.90;3.20;95808.00;;;;5018996;28;20559;-57
2022/12/03 10:03:25;;;;;;;5.40;4.33;;;4.10;99.90;3.10;95818.00;;;;5018749;28;20245;-57
2022/12/03 10:05:54;;;;;;;3.47;3.07;;;4.10;99.90;2.90;95819.00;;;;5036094;28;20217;-57
2022/12/03 10:08:26;;;;;;;3.23;2.93;;;4.10;99.90;2.80;95811.00;;;;5018715;28;20213;-57
2022/12/03 10:10:55;;;;;;;2.57;2.43;;;4.00;99.90;2.90;95821.00;;;;5036040;28;20207;-57
2022/12/03 10:13:26;;;;;;;2.73;2.57;;;4.00;99.90;3.00;95823.00;;;;5035966;28;20258;-57
2022/12/03 10:15:56;;;;;;;3.33;3.10;;;4.00;99.90;3.00;95829.00;;;;5018679;28;20223;-56
2022/12/03 10:18:26;;;;;;;5.07;4.17;;;4.00;99.90;2.90;95823.00;;;;5036197;28;20201;-57
2022/12/03 10:20:53;;;;;;;2.07;1.97;;;4.00;99.90;2.90;95823.00;;;;5036067;28;20300;-57
2022/12/03 10:23:22;;;;;;;2.83;2.63;;;3.90;99.90;2.90;95826.00;;;;5018734;28;20256;-57
2022/12/03 10:25:55;;;;;;;3.63;3.23;;;3.90;99.90;2.90;95823.00;;;;5035898;28;20208;-57
2022/12/03 10:28:32;;;;;;;3.43;3.00;;;3.80;99.90;2.90;95829.00;;;;5018514;28;20267;-57
2022/12/03 10:31:01;;;;;;;4.47;2.77;;;3.90;99.90;2.70;95822.00;;;;5035893;28;20231;-57
2022/12/03 10:33:35;;;;;;;5.17;3.47;;;3.80;99.90;2.50;95808.00;;;;5018592;28;20235;-57
2022/12/03 10:36:20;;;;;;;2.80;2.70;;;3.70;99.90;2.40;95823.00;;;;5035918;28;20225;-55
2022/12/03 10:39:06;;;;;;;4.53;2.97;;;3.50;99.90;2.70;95809.00;;;;5035823;28;20193;-58
2022/12/03 10:41:33;;;;;;;6.63;3.50;;;3.60;99.90;2.90;95810.00;;;;5035794;28;20224;-58
2022/12/03 10:44:17;;;;;;;4.30;3.60;;;3.70;99.90;2.90;95800.00;;;;5018505;28;20204;-58
2022/12/03 10:46:45;;;;;;;2.93;2.17;;;3.80;99.90;3.00;95811.00;;;;5035763;28;20224;-58
2022/12/03 10:49:16;;;;;;;3.77;3.47;;;4.00;99.90;3.10;95808.00;;;;5035556;28;20275;-56
2022/12/03 10:51:45;;;;;;;2.53;2.27;;;3.90;99.90;3.10;95801.00;;;;5035579;28;20200;-56
2022/12/03 10:54:18;;;;;;;2.90;2.73;;;4.10;99.90;3.10;95801.00;;;;5035687;28;20217;-57
2022/12/03 10:56:48;;;;;;;3.60;2.53;;;4.00;99.90;3.20;95788.00;;;;5018428;28;20301;-57
2022/12/03 10:59:18;;;;;;;3.00;2.80;;;4.20;99.90;3.10;95790.00;;;;5035908;28;20205;-57
2022/12/03 11:01:45;;;;;;;3.77;3.47;;;4.10;99.90;3.00;95785.00;;;;5017243;28;20240;-57
2022/12/03 11:04:31;;;;;;;2.60;2.40;;;4.10;99.90;3.20;95790.00;;;;5017789;28;20266;-57
2022/12/03 11:07:02;;;;;;;2.07;1.93;;;4.20;99.90;3.30;95782.00;;;;5035123;28;20236;-57
2022/12/03 11:09:32;;;;;;;4.20;3.13;;;4.30;99.90;3.20;95775.00;;;;5035298;28;20208;-57
2022/12/03 11:12:05;;;;;;;3.63;2.87;;;4.30;99.90;3.40;95767.00;;;;5035034;28;20306;-59
2022/12/03 11:15:06;;;;;;;4.57;3.67;;;4.20;99.90;3.30;95775.00;;;;5035240;28;20628;-57
2022/12/03 11:17:45;;;;;;;3.30;2.77;;;4.30;99.90;3.10;95749.00;;;;4955477;29;20227;-58
2022/12/03 11:21:02;;;;;;;2.70;1.83;;;4.20;99.90;3.00;95780.00;;;;5026197;28;20251;-58
2022/12/03 11:24:17;;;;;;;2.33;2.23;;;4.10;99.90;3.00;95755.00;;;;5033877;28;20212;-56
2022/12/03 11:27:24;;;;;;;2.47;2.37;;;4.10;99.90;2.90;95760.00;;;;5012847;28;20229;-57
2022/12/03 11:30:01;;;;;;;3.53;3.33;;;4.00;99.90;2.90;95772.00;;;;5035886;28;20201;-58
2022/12/03 11:33:00;;;;;;;3.03;2.73;;;3.90;99.90;3.10;95764.00;;;;5035403;28;20239;-58
2022/12/03 11:35:52;;;;;;;3.27;3.07;;;4.00;99.90;3.20;95776.00;;;;4955408;29;20219;-58
2022/12/03 11:38:47;;;;;;;3.27;2.80;;;4.10;99.90;2.90;95778.00;;;;4938473;29;20258;-57